createdAt,value
2024-04-10T05:00:42.856Z,9.01
2024-04-10T05:01:42.747Z,8.99
2024-04-10T05:02:42.967Z,8.92
2024-04-10T05:03:42.880Z,8.87
2024-04-10T05:04:42.791Z,8.89
2024-04-10T05:05:42.787Z,8.98
2024-04-10T05:06:42.696Z,9.08
2024-04-10T05:07:42.697Z,9.05
2024-04-10T05:08:42.678Z,9.04
2024-04-10T05:09:42.681Z,9.10
2024-04-10T05:10:42.666Z,9.04
2024-04-10T05:11:47.771Z,9.10
2024-04-10T05:12:42.856Z,8.98
2024-04-10T05:13:42.616Z,9.14
2024-04-10T05:14:42.634Z,9.05
2024-04-10T05:15:42.655Z,9.04
2024-04-10T05:16:42.603Z,9.14
2024-04-10T05:17:42.788Z,9.04
2024-04-10T05:18:42.569Z,9.18
2024-04-10T05:19:42.546Z,9.05
2024-04-10T05:20:42.681Z,9.14
2024-04-10T05:21:42.536Z,9.14
2024-04-10T05:22:47.554Z,9.04
2024-04-10T05:23:42.559Z,9.14
2024-04-10T05:24:42.489Z,9.08
2024-04-10T05:25:42.515Z,9.01
2024-04-10T05:26:42.525Z,9.04
2024-04-10T05:27:42.470Z,9.01
2024-04-10T05:28:42.446Z,9.02
2024-04-10T05:29:42.512Z,8.94
2024-04-10T05:30:42.423Z,8.99
2024-04-10T05:31:42.420Z,8.94
2024-04-10T05:32:42.932Z,8.98
2024-04-10T05:33:47.619Z,8.96
2024-04-10T05:34:42.395Z,9.04
2024-04-10T05:35:42.376Z,9.01
2024-04-10T05:36:42.374Z,9.05
2024-04-10T05:37:42.392Z,8.98
2024-04-10T05:38:42.392Z,9.08
2024-04-10T05:39:42.341Z,9.04
2024-04-10T05:40:42.348Z,9.11
2024-04-10T05:41:42.440Z,9.28
2024-04-10T05:42:42.301Z,9.21
2024-04-10T05:43:42.281Z,9.15
2024-04-10T05:44:47.290Z,9.23
2024-04-10T05:45:42.256Z,9.21
2024-04-10T05:46:42.292Z,9.48
2024-04-10T05:47:42.542Z,9.57
2024-04-10T05:48:42.474Z,9.64
2024-04-10T05:49:42.212Z,9.81
2024-04-10T05:50:42.253Z,9.90
2024-04-10T05:51:42.189Z,10.08
2024-04-10T05:52:42.294Z,10.25
2024-04-10T05:53:42.362Z,10.36
2024-04-10T05:54:42.162Z,10.40
2024-04-10T05:55:47.164Z,10.41
2024-04-10T05:56:42.205Z,10.26
2024-04-10T05:57:42.121Z,10.11
2024-04-10T05:58:42.148Z,9.79
2024-04-10T05:59:42.130Z,9.91
2024-04-10T06:00:42.115Z,9.91
2024-04-10T06:01:42.151Z,9.87
2024-04-10T06:02:42.274Z,9.89
2024-04-10T06:03:42.147Z,9.89
2024-04-10T06:04:42.096Z,9.86
2024-04-10T06:05:42.101Z,9.83
2024-04-10T06:06:47.068Z,9.84
2024-04-10T06:07:42.011Z,9.78
2024-04-10T06:08:42.340Z,9.74
2024-04-10T06:09:41.995Z,9.69
2024-04-10T06:10:42.007Z,9.78
2024-04-10T06:11:42.062Z,9.89
2024-04-10T06:12:42.012Z,9.87
2024-04-10T06:13:41.961Z,9.91
2024-04-10T06:14:42.000Z,9.84
2024-04-10T06:15:42.024Z,9.81
2024-04-10T06:16:42.061Z,9.86
2024-04-10T06:17:47.054Z,9.89
2024-04-10T06:18:41.899Z,9.84
2024-04-10T06:19:41.884Z,9.93
2024-04-10T06:20:41.910Z,9.81
2024-04-10T06:21:41.855Z,9.84
2024-04-10T06:22:41.857Z,9.87
2024-04-10T06:23:41.869Z,9.87
2024-04-10T06:24:41.818Z,10.12
2024-04-10T06:25:41.812Z,10.05
2024-04-10T06:26:42.041Z,10.17
2024-04-10T06:27:41.787Z,10.26
2024-04-10T06:28:46.827Z,10.23
2024-04-10T06:29:41.818Z,10.18
2024-04-10T06:30:41.753Z,10.14
2024-04-10T06:31:41.791Z,10.15
2024-04-10T06:32:41.878Z,10.22
2024-04-10T06:33:41.827Z,10.17
2024-04-10T06:34:41.719Z,10.32
2024-04-10T06:35:41.732Z,10.38
2024-04-10T06:36:41.732Z,10.40
2024-04-10T06:37:41.680Z,10.41
2024-04-10T06:38:41.734Z,10.42
2024-04-10T06:39:46.684Z,10.36
2024-04-10T06:40:41.675Z,10.51
2024-04-10T06:41:41.644Z,10.66
2024-04-10T06:42:41.631Z,10.73
2024-04-10T06:43:41.648Z,11.06
2024-04-10T06:44:41.650Z,11.14
2024-04-10T06:45:41.583Z,11.54
2024-04-10T06:46:41.583Z,11.64
2024-04-10T06:47:42.181Z,11.85
2024-04-10T06:48:42.061Z,12.05
2024-04-10T06:49:41.616Z,12.05
2024-04-10T06:50:46.594Z,12.02
2024-04-10T06:51:41.524Z,12.02
2024-04-10T06:52:41.574Z,12.38
2024-04-10T06:53:41.543Z,12.42
2024-04-10T06:54:41.482Z,12.83
2024-04-10T06:55:41.482Z,13.19
2024-04-10T06:56:41.599Z,13.39
2024-04-10T06:57:41.501Z,13.41
2024-04-10T06:58:41.496Z,13.05
2024-04-10T06:59:41.587Z,12.67
2024-04-10T07:00:41.553Z,12.52
2024-04-10T07:01:46.449Z,12.46
2024-04-10T07:02:41.647Z,12.47
2024-04-10T07:03:41.756Z,12.31
2024-04-10T07:04:41.414Z,12.45
2024-04-10T07:05:41.396Z,12.57
2024-04-10T07:06:41.348Z,12.57
2024-04-10T07:07:41.340Z,12.70
2024-04-10T07:08:44.298Z,12.87
2024-04-10T07:09:41.317Z,12.97
2024-04-10T07:10:41.401Z,12.64
2024-04-10T07:11:41.490Z,12.32
2024-04-10T07:12:46.319Z,12.38
2024-04-10T07:13:41.299Z,12.45
2024-04-10T07:14:41.380Z,12.49
2024-04-10T07:15:41.284Z,12.54
2024-04-10T07:16:41.297Z,12.49
2024-04-10T07:17:41.379Z,12.45
2024-04-10T07:18:42.007Z,12.35
2024-04-10T07:19:41.228Z,12.52
2024-04-10T07:20:41.281Z,12.70
2024-04-10T07:21:41.186Z,12.92
2024-04-10T07:22:41.186Z,12.71
2024-04-10T07:23:46.203Z,12.62
2024-04-10T07:24:41.164Z,12.49
2024-04-10T07:25:41.164Z,12.49
2024-04-10T07:26:41.229Z,12.71
2024-04-10T07:27:41.124Z,12.86
2024-04-10T07:28:41.661Z,13.07
2024-04-10T07:29:41.274Z,13.04
2024-04-10T07:30:41.095Z,13.23
2024-04-10T07:31:41.090Z,13.32
2024-04-10T07:32:41.272Z,13.03
2024-04-10T07:33:41.164Z,12.71
2024-04-10T07:34:46.079Z,12.78
2024-04-10T07:35:41.086Z,12.83
2024-04-10T07:36:43.402Z,12.65
2024-04-10T07:37:41.019Z,12.86
2024-04-10T07:38:41.052Z,13.03
2024-04-10T07:39:41.007Z,13.36
2024-04-10T07:40:40.975Z,13.38
2024-04-10T07:41:41.019Z,13.52
2024-04-10T07:42:42.022Z,13.71
2024-04-10T07:43:40.965Z,13.75
2024-04-10T07:44:43.746Z,13.73
2024-04-10T07:45:45.933Z,13.78
2024-04-10T07:46:40.916Z,13.84
2024-04-10T07:47:41.050Z,13.81
2024-04-10T07:48:43.772Z,13.79
2024-04-10T07:49:40.933Z,13.49
2024-04-10T07:50:40.984Z,13.01
2024-04-10T07:51:40.892Z,12.67
2024-04-10T07:52:40.835Z,12.89
2024-04-10T07:53:40.886Z,12.85
2024-04-10T07:54:40.825Z,12.68
2024-04-10T07:55:43.113Z,12.47
2024-04-10T07:56:45.852Z,12.31
2024-04-10T07:57:40.792Z,12.35
2024-04-10T07:58:40.786Z,12.56
2024-04-10T07:59:40.798Z,13.00
2024-04-10T08:00:40.775Z,13.51
2024-04-10T08:01:40.752Z,14.00
2024-04-10T08:02:40.878Z,13.84
2024-04-10T08:03:40.920Z,13.32
2024-04-10T08:04:40.748Z,13.51
2024-04-10T08:05:40.742Z,13.59
2024-04-10T08:06:40.688Z,13.62
2024-04-10T08:07:45.698Z,13.63
2024-04-10T08:08:40.683Z,13.75
2024-04-10T08:09:40.644Z,14.07
2024-04-10T08:10:40.668Z,14.39
2024-04-10T08:11:40.821Z,14.52
2024-04-10T08:12:40.613Z,14.72
2024-04-10T08:13:40.609Z,14.75
2024-04-10T08:14:40.614Z,15.14
2024-04-10T08:15:40.580Z,15.41
2024-04-10T08:16:40.716Z,15.39
2024-04-10T08:17:40.607Z,15.38
2024-04-10T08:18:45.672Z,15.27
2024-04-10T08:19:40.546Z,15.31
2024-04-10T08:20:40.552Z,15.57
2024-04-10T08:21:40.520Z,15.29
2024-04-10T08:22:40.523Z,14.89
2024-04-10T08:23:40.786Z,14.65
2024-04-10T08:24:40.490Z,14.40
2024-04-10T08:25:40.492Z,14.04
2024-04-10T08:26:40.497Z,14.25
2024-04-10T08:27:40.474Z,14.39
2024-04-10T08:28:40.433Z,14.52
2024-04-10T08:29:45.481Z,14.58
2024-04-10T08:30:40.411Z,14.73
2024-04-10T08:31:40.416Z,14.70
2024-04-10T08:32:40.818Z,14.86
2024-04-10T08:33:40.492Z,14.68
2024-04-10T08:34:40.753Z,14.60
2024-04-10T08:35:40.352Z,14.52
2024-04-10T08:36:40.367Z,14.35
2024-04-10T08:37:41.057Z,14.29
2024-04-10T08:38:40.385Z,14.33
2024-04-10T08:39:40.327Z,14.28
2024-04-10T08:40:45.361Z,14.39
2024-04-10T08:41:40.288Z,14.55
2024-04-10T08:42:40.317Z,14.62
2024-04-10T08:43:40.297Z,14.70
2024-04-10T08:44:40.273Z,14.80
2024-04-10T08:45:40.242Z,15.09
2024-04-10T08:46:40.248Z,15.34
2024-04-10T08:47:40.520Z,15.17
2024-04-10T08:48:40.444Z,15.16
2024-04-10T08:49:40.195Z,15.10
2024-04-10T08:50:40.212Z,14.98
2024-04-10T08:51:45.330Z,15.02
2024-04-10T08:52:40.183Z,14.65
2024-04-10T08:53:40.150Z,14.60
2024-04-10T08:54:40.163Z,14.61
2024-04-10T08:55:46.186Z,14.75
2024-04-10T08:56:41.162Z,14.92
2024-04-10T08:57:40.279Z,14.99
2024-04-10T08:58:40.095Z,14.92
2024-04-10T08:59:40.109Z,15.17
2024-04-10T09:00:40.155Z,15.36
2024-04-10T09:01:40.252Z,15.49
2024-04-10T09:02:45.113Z,15.41
2024-04-10T09:03:40.473Z,15.47
2024-04-10T09:04:40.233Z,15.56
2024-04-10T09:05:40.025Z,15.57
2024-04-10T09:06:40.853Z,15.54
2024-04-10T09:07:39.998Z,15.43
2024-04-10T09:08:40.008Z,15.44
2024-04-10T09:09:40.069Z,15.36
2024-04-10T09:10:39.966Z,15.10
2024-04-10T09:11:40.655Z,14.86
2024-04-10T09:12:39.942Z,14.61
2024-04-10T09:13:44.963Z,14.54
2024-04-10T09:14:39.912Z,14.42
2024-04-10T09:15:39.921Z,14.43
2024-04-10T09:16:40.004Z,14.64
2024-04-10T09:17:39.906Z,14.94
2024-04-10T09:18:39.886Z,15.34
2024-04-10T09:19:39.926Z,15.51
2024-04-10T09:20:39.872Z,15.44
2024-04-10T09:21:39.858Z,15.10
2024-04-10T09:22:39.899Z,14.95
2024-04-10T09:23:40.088Z,14.77
2024-04-10T09:24:44.828Z,14.62
2024-04-10T09:25:39.818Z,14.99
2024-04-10T09:26:39.993Z,15.25
2024-04-10T09:27:39.799Z,15.54
2024-04-10T09:28:39.763Z,16.14
2024-04-10T09:29:39.890Z,16.46
2024-04-10T09:30:39.735Z,16.52
2024-04-10T09:31:39.748Z,16.15
2024-04-10T09:32:40.027Z,15.93
2024-04-10T09:33:39.870Z,15.75
2024-04-10T09:34:40.129Z,15.50
2024-04-10T09:35:44.741Z,15.41
2024-04-10T09:36:39.731Z,15.13
2024-04-10T09:37:39.732Z,15.27
2024-04-10T09:38:39.779Z,14.98
2024-04-10T09:39:39.659Z,14.95
2024-04-10T09:40:39.650Z,15.03
2024-04-10T09:41:39.728Z,15.10
2024-04-10T09:42:39.675Z,14.86
2024-04-10T09:43:39.600Z,14.92
2024-04-10T09:44:39.670Z,14.89
2024-04-10T09:45:39.588Z,14.72
2024-04-10T09:46:44.634Z,14.50
2024-04-10T09:47:39.648Z,14.51
2024-04-10T09:48:39.716Z,14.51
2024-04-10T09:49:39.622Z,14.57
2024-04-10T09:50:39.600Z,14.62
2024-04-10T09:51:39.534Z,14.52
2024-04-10T09:52:39.494Z,14.47
2024-04-10T09:53:39.531Z,14.33
2024-04-10T09:54:40.427Z,14.29
2024-04-10T09:55:39.494Z,14.20
2024-04-10T09:56:39.486Z,14.12
2024-04-10T09:57:44.466Z,14.00
2024-04-10T09:58:39.425Z,14.15
2024-04-10T09:59:39.836Z,14.06
2024-04-10T10:00:39.443Z,14.15
2024-04-10T10:01:39.406Z,14.18
2024-04-10T10:02:39.539Z,14.17
2024-04-10T10:03:39.632Z,14.25
2024-04-10T10:04:39.454Z,14.29
2024-04-10T10:06:39.376Z,14.32
2024-04-10T10:07:39.327Z,14.21
2024-04-10T10:08:44.409Z,14.17
2024-04-10T10:09:39.320Z,13.97
2024-04-10T10:10:39.379Z,13.99
2024-04-10T10:11:39.377Z,14.10
2024-04-10T10:12:39.279Z,14.07
2024-04-10T10:13:39.274Z,14.15
2024-04-10T10:14:39.454Z,14.36
2024-04-10T10:15:39.265Z,14.61
2024-04-10T10:16:39.426Z,14.75
2024-04-10T10:17:49.803Z,14.80
2024-04-10T10:18:39.363Z,14.91
2024-04-10T10:19:44.252Z,15.03
2024-04-10T10:20:39.196Z,14.96
2024-04-10T10:21:39.246Z,14.69
2024-04-10T10:22:39.175Z,14.55
2024-04-10T10:23:39.212Z,14.68
2024-04-10T10:24:39.147Z,14.68
2024-04-10T10:25:39.130Z,14.50
2024-04-10T10:26:39.167Z,14.51
2024-04-10T10:27:39.175Z,14.68
2024-04-10T10:28:40.015Z,14.54
2024-04-10T10:29:39.153Z,14.50
2024-04-10T10:30:46.365Z,14.69
2024-04-10T10:31:39.062Z,14.99
2024-04-10T10:32:39.282Z,15.25
2024-04-10T10:33:39.232Z,15.49
2024-04-10T10:34:39.271Z,15.62
2024-04-10T10:35:39.120Z,15.56
2024-04-10T10:36:39.009Z,15.59
2024-04-10T10:37:39.008Z,15.59
2024-04-10T10:38:39.072Z,15.72
2024-04-10T10:39:38.994Z,15.92
2024-04-10T10:40:38.983Z,15.84
2024-04-10T10:41:44.524Z,15.93
2024-04-10T10:42:38.966Z,15.92
2024-04-10T10:43:38.932Z,15.80
2024-04-10T10:44:38.984Z,15.69
2024-04-10T10:45:38.935Z,15.71
2024-04-10T10:46:38.970Z,15.71
2024-04-10T10:47:38.974Z,15.84
2024-04-10T10:48:38.931Z,15.92
2024-04-10T10:49:38.904Z,16.02
2024-04-10T10:50:38.936Z,15.94
2024-04-10T10:51:38.859Z,16.04
2024-04-10T10:52:43.899Z,16.00
2024-04-10T10:53:38.864Z,15.97
2024-04-10T10:54:38.806Z,15.97
2024-04-10T10:55:38.798Z,15.96
2024-04-10T10:56:38.811Z,15.90
2024-04-10T10:57:38.771Z,15.83
2024-04-10T10:58:38.884Z,15.72
2024-04-10T10:59:38.802Z,15.65
2024-04-10T11:00:38.791Z,15.54
2024-04-10T11:01:38.763Z,15.46
2024-04-10T11:02:38.788Z,15.28
2024-04-10T11:03:43.831Z,14.99
2024-04-10T11:04:38.886Z,14.89
2024-04-10T11:05:38.752Z,14.89
2024-04-10T11:06:38.756Z,14.86
2024-04-10T11:07:38.659Z,14.75
2024-04-10T11:08:38.697Z,14.68
2024-04-10T11:09:38.649Z,14.84
2024-04-10T11:10:38.635Z,14.94
2024-04-10T11:11:38.724Z,15.03
2024-04-10T11:12:38.679Z,15.16
2024-04-10T11:13:38.645Z,15.20
2024-04-10T11:14:43.635Z,15.31
2024-04-10T11:15:38.585Z,15.56
2024-04-10T11:16:38.615Z,15.71
2024-04-10T11:17:38.695Z,16.02
2024-04-10T11:18:38.608Z,16.46
2024-04-10T11:19:46.955Z,16.75
2024-04-10T11:20:38.560Z,16.75
2024-04-10T11:21:40.631Z,16.89
2024-04-10T11:22:38.510Z,16.82
2024-04-10T11:23:38.558Z,16.67
2024-04-10T11:24:38.474Z,16.56
2024-04-10T11:25:43.479Z,16.50
2024-04-10T11:26:38.458Z,16.56
2024-04-10T11:27:38.432Z,16.50
2024-04-10T11:28:38.433Z,16.45
2024-04-10T11:29:38.483Z,16.33
2024-04-10T11:30:38.398Z,16.24
2024-04-10T11:31:38.385Z,16.48
2024-04-10T11:32:38.520Z,16.63
2024-04-10T11:33:38.651Z,16.70
2024-04-10T11:34:38.668Z,16.61
2024-04-10T11:35:38.508Z,16.85
2024-04-10T11:36:43.347Z,17.15
2024-04-10T11:37:38.337Z,17.77
2024-04-10T11:38:38.382Z,18.07
2024-04-10T11:39:38.307Z,18.11
2024-04-10T11:40:38.288Z,17.51
2024-04-10T11:41:38.380Z,17.37
2024-04-10T11:42:38.264Z,16.83
2024-04-10T11:43:38.274Z,17.01
2024-04-10T11:44:38.253Z,16.88
2024-04-10T11:45:38.234Z,16.83
2024-04-10T11:46:38.294Z,16.81
2024-04-10T11:47:43.775Z,16.86
2024-04-10T11:48:38.314Z,17.01
2024-04-10T11:49:38.189Z,16.93
2024-04-10T11:50:38.225Z,16.75
2024-04-10T11:51:38.168Z,16.78
2024-04-10T11:52:39.570Z,16.81
2024-04-10T11:53:38.221Z,16.75
2024-04-10T11:54:38.146Z,16.68
2024-04-10T11:55:38.129Z,16.76
2024-04-10T11:56:38.127Z,16.97
2024-04-10T11:57:38.120Z,16.96
2024-04-10T11:58:43.225Z,16.93
2024-04-10T11:59:38.154Z,16.83
2024-04-10T12:00:38.066Z,16.58
2024-04-10T12:01:38.056Z,16.52
2024-04-10T12:02:38.125Z,16.52
2024-04-10T12:03:38.229Z,16.61
2024-04-10T12:04:38.049Z,16.60
2024-04-10T12:05:38.329Z,16.64
2024-04-10T12:06:38.007Z,16.56
2024-04-10T12:07:37.987Z,16.60
2024-04-10T12:08:38.075Z,16.67
2024-04-10T12:09:43.067Z,16.71
2024-04-10T12:10:37.953Z,16.75
2024-04-10T12:11:38.098Z,16.86
2024-04-10T12:12:38.296Z,17.00
2024-04-10T12:13:37.947Z,16.98
2024-04-10T12:14:37.963Z,16.94
2024-04-10T12:15:37.903Z,16.68
2024-04-10T12:16:37.929Z,16.31
2024-04-10T12:17:38.090Z,15.96
2024-04-10T12:18:38.046Z,15.86
2024-04-10T12:19:37.866Z,15.83
2024-04-10T12:20:42.952Z,16.00
2024-04-10T12:21:37.833Z,16.09
2024-04-10T12:22:37.832Z,16.08
2024-04-10T12:23:37.850Z,16.17
2024-04-10T12:24:37.798Z,16.12
2024-04-10T12:25:37.931Z,16.24
2024-04-10T12:26:37.820Z,16.30
2024-04-10T12:27:37.790Z,16.17
2024-04-10T12:28:37.749Z,16.30
2024-04-10T12:29:37.767Z,16.61
2024-04-10T12:30:37.769Z,17.44
2024-04-10T12:31:42.757Z,18.35
2024-04-10T12:32:37.905Z,19.29
2024-04-10T12:33:37.884Z,20.11
2024-04-10T12:34:37.916Z,20.59
2024-04-10T12:35:37.694Z,20.98
2024-04-10T12:36:37.688Z,21.54
2024-04-10T12:37:37.649Z,22.02
2024-04-10T12:38:37.659Z,22.37
2024-04-10T12:39:37.639Z,22.95
2024-04-10T12:40:37.642Z,22.58
2024-04-10T12:41:37.624Z,22.30
2024-04-10T12:42:42.629Z,21.71
2024-04-10T12:43:37.590Z,21.72
2024-04-10T12:44:37.620Z,21.79
2024-04-10T12:45:37.565Z,21.54
2024-04-10T12:46:37.624Z,21.31
2024-04-10T12:47:37.743Z,21.62
2024-04-10T12:48:37.628Z,22.30
2024-04-10T12:49:37.519Z,22.77
2024-04-10T12:50:37.553Z,23.31
2024-04-10T12:51:37.509Z,23.42
2024-04-10T12:52:37.495Z,23.22
2024-04-10T12:53:42.553Z,22.14
2024-04-10T12:54:37.551Z,21.96
2024-04-10T12:55:39.293Z,22.20
2024-04-10T12:56:37.492Z,22.35
2024-04-10T12:57:37.471Z,22.47
2024-04-10T12:58:37.422Z,22.79
2024-04-10T12:59:37.465Z,23.15
2024-04-10T13:00:37.458Z,23.46
2024-04-10T13:01:37.399Z,23.27
2024-04-10T13:02:37.480Z,22.65
2024-04-10T13:03:37.923Z,22.02
2024-04-10T13:04:37.401Z,21.40
2024-04-10T13:05:37.402Z,20.72
2024-04-10T13:06:42.371Z,20.26
2024-04-10T13:07:37.348Z,19.37
2024-04-10T13:08:37.381Z,18.65
2024-04-10T13:09:37.307Z,18.42
2024-04-10T13:10:37.298Z,18.36
2024-04-10T13:11:37.359Z,18.29
2024-04-10T13:12:37.358Z,18.11
2024-04-10T13:13:38.272Z,17.87
2024-04-10T13:14:37.405Z,17.62
2024-04-10T13:15:37.226Z,17.62
2024-04-10T13:16:37.239Z,17.54
2024-04-10T13:17:37.342Z,17.59
2024-04-10T13:18:37.315Z,17.55
2024-04-10T13:19:42.221Z,17.59
2024-04-10T13:20:37.205Z,17.62
2024-04-10T13:21:37.178Z,17.63
2024-04-10T13:22:37.164Z,17.59
2024-04-10T13:23:37.209Z,17.75
2024-04-10T13:24:37.187Z,17.75
2024-04-10T13:25:37.113Z,17.62
2024-04-10T13:26:37.190Z,17.71
2024-04-10T13:27:37.095Z,17.63
2024-04-10T13:28:37.096Z,17.64
2024-04-10T13:29:37.114Z,17.58
2024-04-10T13:30:42.092Z,17.51
2024-04-10T13:31:37.069Z,17.46
2024-04-10T13:32:37.238Z,17.46
2024-04-10T13:33:37.251Z,17.44
2024-04-10T13:34:37.225Z,17.41
2024-04-10T13:35:37.023Z,17.26
2024-04-10T13:36:37.011Z,17.23
2024-04-10T13:37:41.911Z,17.25
2024-04-10T13:38:36.984Z,17.15
2024-04-10T13:39:36.972Z,16.98
2024-04-10T13:40:36.971Z,16.76
2024-04-10T13:41:42.013Z,16.78
2024-04-10T13:42:36.950Z,16.78
2024-04-10T13:43:38.579Z,16.57
2024-04-10T13:44:36.955Z,16.60
2024-04-10T13:45:37.067Z,16.39
2024-04-10T13:46:36.912Z,16.35
2024-04-10T13:47:36.922Z,16.53
2024-04-10T13:48:37.207Z,16.46
2024-04-10T13:49:36.853Z,16.48
2024-04-10T13:50:37.076Z,16.52
2024-04-10T13:51:36.832Z,16.60
2024-04-10T13:52:41.849Z,16.49
2024-04-10T13:53:36.838Z,16.39
2024-04-10T13:54:36.821Z,16.24
2024-04-10T13:55:36.809Z,16.17
2024-04-10T13:56:36.860Z,16.23
2024-04-10T13:57:36.788Z,16.17
2024-04-10T13:58:36.779Z,16.14
2024-04-10T13:59:36.799Z,16.15
2024-04-10T14:00:36.793Z,16.14
2024-04-10T14:01:36.797Z,16.08
2024-04-10T14:02:36.848Z,16.12
2024-04-10T14:03:41.924Z,16.04
2024-04-10T14:04:36.754Z,16.20
2024-04-10T14:05:36.783Z,16.27
2024-04-10T14:06:36.692Z,16.27
2024-04-10T14:07:36.662Z,16.24
2024-04-10T14:08:36.706Z,16.04
2024-04-10T14:09:36.636Z,16.21
2024-04-10T14:10:36.625Z,16.15
2024-04-10T14:11:36.750Z,16.09
2024-04-10T14:12:36.619Z,15.94
2024-04-10T14:13:36.617Z,15.68
2024-04-10T14:14:41.606Z,15.64
2024-04-10T14:15:36.566Z,15.57
2024-04-10T14:16:36.685Z,15.78
2024-04-10T14:17:36.787Z,15.87
2024-04-10T14:18:36.684Z,15.97
2024-04-10T14:19:36.541Z,15.96
2024-04-10T14:20:36.596Z,16.12
2024-04-10T14:21:36.506Z,16.09
2024-04-10T14:22:36.512Z,16.07
2024-04-10T14:23:36.556Z,15.87
2024-04-10T14:24:36.480Z,15.96
2024-04-10T14:25:41.492Z,16.04
2024-04-10T14:26:36.541Z,16.20
2024-04-10T14:27:36.437Z,16.20
2024-04-10T14:28:36.434Z,16.28
2024-04-10T14:29:37.069Z,16.41
2024-04-10T14:30:36.410Z,16.42
2024-04-10T14:31:36.385Z,16.50
2024-04-10T14:32:36.503Z,16.60
2024-04-10T14:33:36.615Z,16.58
2024-04-10T14:34:36.443Z,16.64
2024-04-10T14:35:36.438Z,16.70
2024-04-10T14:36:41.402Z,16.56
2024-04-10T14:37:36.346Z,16.50
2024-04-10T14:38:36.381Z,16.53
2024-04-10T14:39:36.308Z,16.56
2024-04-10T14:40:36.299Z,16.61
2024-04-10T14:41:36.334Z,16.61
2024-04-10T14:42:36.285Z,16.56
2024-04-10T14:43:36.262Z,16.67
2024-04-10T14:44:36.303Z,16.70
2024-04-10T14:45:36.241Z,16.70
2024-04-10T14:46:36.288Z,16.82
2024-04-10T14:47:41.357Z,16.79
2024-04-10T14:48:36.277Z,16.73
2024-04-10T14:49:36.211Z,16.68
2024-04-10T14:50:36.217Z,16.57
2024-04-10T14:51:36.823Z,16.49
2024-04-10T14:52:36.159Z,16.50
2024-04-10T14:53:36.273Z,16.43
2024-04-10T14:54:36.142Z,16.46
2024-04-10T14:55:36.126Z,16.31
2024-04-10T14:56:36.168Z,16.43
2024-04-10T14:57:36.667Z,16.39
2024-04-10T14:58:41.116Z,16.41
2024-04-10T14:59:36.121Z,16.43
2024-04-10T15:00:36.124Z,16.60
2024-04-10T15:01:36.053Z,16.61
2024-04-10T15:02:36.145Z,16.71
2024-04-10T15:03:37.579Z,16.75
2024-04-10T15:04:36.103Z,16.76
2024-04-10T15:05:36.135Z,16.79
2024-04-10T15:06:35.999Z,16.82
2024-04-10T15:07:36.002Z,16.76
2024-04-10T15:08:36.025Z,16.75
2024-04-10T15:09:41.000Z,16.79
2024-04-10T15:10:35.952Z,16.66
2024-04-10T15:11:36.111Z,16.56
2024-04-10T15:12:36.044Z,16.49
2024-04-10T15:13:35.939Z,16.48
2024-04-10T15:14:35.944Z,16.39
2024-04-10T15:15:35.902Z,16.34
2024-04-10T15:16:36.197Z,16.34
2024-04-10T15:17:35.985Z,16.35
2024-04-10T15:18:35.926Z,16.27
2024-04-10T15:19:35.886Z,16.25
2024-04-10T15:20:41.007Z,16.28
2024-04-10T15:21:35.841Z,16.23
2024-04-10T15:22:35.817Z,16.14
2024-04-10T15:23:35.854Z,16.11
2024-04-10T15:24:35.842Z,16.17
2024-04-10T15:25:35.803Z,16.20
2024-04-10T15:26:35.806Z,16.27
2024-04-10T15:27:35.760Z,16.27
2024-04-10T15:28:35.748Z,16.27
2024-04-10T15:29:35.818Z,16.25
2024-04-10T15:30:35.752Z,16.28
2024-04-10T15:31:40.740Z,16.34
2024-04-10T15:32:35.957Z,16.42
2024-04-10T15:33:35.947Z,16.39
2024-04-10T15:34:35.824Z,16.34
2024-04-10T15:35:35.750Z,16.35
2024-04-10T15:36:35.689Z,16.49
2024-04-10T15:37:35.649Z,16.48
2024-04-10T15:38:35.691Z,16.50
2024-04-10T15:39:35.750Z,16.49
2024-04-10T15:40:35.629Z,16.52
2024-04-10T15:41:35.676Z,16.50
2024-04-10T15:42:40.628Z,16.53
2024-04-10T15:43:35.592Z,16.53
2024-04-10T15:44:35.668Z,16.50
2024-04-10T15:45:35.565Z,16.45
2024-04-10T15:46:35.558Z,16.33
2024-04-10T15:47:35.769Z,16.31
2024-04-10T15:48:35.623Z,16.39
2024-04-10T15:49:35.592Z,16.43
2024-04-10T15:50:35.606Z,16.50
2024-04-10T15:51:35.500Z,16.46
2024-04-10T15:52:49.537Z,16.58
2024-04-10T15:53:41.581Z,16.53
2024-04-10T15:54:35.465Z,16.57
2024-04-10T15:55:35.486Z,16.71
2024-04-10T15:56:35.536Z,16.68
2024-04-10T15:57:35.427Z,16.67
2024-04-10T15:58:35.415Z,16.56
2024-04-10T15:59:35.438Z,16.53
2024-04-10T16:00:35.465Z,16.45
2024-04-10T16:01:35.410Z,16.39
2024-04-10T16:02:35.468Z,16.28
2024-04-10T16:03:35.761Z,16.42
2024-04-10T16:04:40.468Z,16.34
2024-04-10T16:05:35.411Z,16.35
2024-04-10T16:06:35.335Z,16.45
2024-04-10T16:07:35.337Z,16.43
2024-04-10T16:08:35.366Z,16.46
2024-04-10T16:09:35.298Z,16.35
2024-04-10T16:10:35.291Z,16.34
2024-04-10T16:11:35.345Z,16.41
2024-04-10T16:12:35.399Z,16.25
2024-04-10T16:13:35.275Z,16.11
2024-04-10T16:14:35.251Z,16.09
2024-04-10T16:15:40.257Z,16.14
2024-04-10T16:16:35.382Z,16.15
2024-04-10T16:17:35.268Z,16.14
2024-04-10T16:18:35.380Z,16.11
2024-04-10T16:19:35.202Z,16.05
2024-04-10T16:20:35.236Z,16.07
2024-04-10T16:21:35.171Z,16.08
2024-04-10T16:22:35.150Z,16.05
2024-04-10T16:23:35.178Z,16.08
2024-04-10T16:24:35.137Z,16.00
2024-04-10T16:25:35.129Z,16.00
2024-04-10T16:26:40.138Z,15.94
2024-04-10T16:27:35.145Z,15.94
2024-04-10T16:28:35.085Z,16.02
2024-04-10T16:29:35.127Z,15.92
2024-04-10T16:30:35.072Z,15.87
2024-04-10T16:31:35.091Z,15.83
2024-04-10T16:32:35.215Z,15.86
2024-04-10T16:33:35.246Z,15.87
2024-04-10T16:34:35.119Z,15.89
2024-04-10T16:35:35.053Z,15.84
2024-04-10T16:36:34.992Z,15.84
2024-04-10T16:37:40.030Z,15.75
2024-04-10T16:38:34.981Z,15.80
2024-04-10T16:39:34.968Z,15.76
2024-04-10T16:40:34.961Z,15.75
2024-04-10T16:41:34.986Z,15.80
2024-04-10T16:42:34.922Z,15.74
2024-04-10T16:43:37.865Z,15.80
2024-04-10T16:44:34.949Z,15.84
2024-04-10T16:45:34.908Z,15.89
2024-04-10T16:46:34.905Z,15.83
2024-04-10T16:47:34.919Z,15.83
2024-04-10T16:48:40.072Z,15.67
2024-04-10T16:49:34.853Z,15.65
2024-04-10T16:50:34.867Z,15.69
2024-04-10T16:51:34.837Z,15.68
2024-04-10T16:52:34.811Z,15.62
2024-04-10T16:53:34.832Z,15.59
2024-04-10T16:54:34.785Z,15.59
2024-04-10T16:55:34.774Z,15.51
2024-04-10T16:56:34.964Z,15.51
2024-04-10T16:57:34.767Z,15.65
2024-04-10T16:58:34.752Z,15.62
2024-04-10T16:59:39.776Z,15.59
2024-04-10T17:00:34.730Z,15.64
2024-04-10T17:01:34.796Z,15.65
2024-04-10T17:02:34.843Z,15.56
2024-04-10T17:03:34.744Z,15.56
2024-04-10T17:04:34.776Z,15.62
2024-04-10T17:05:34.732Z,15.57
2024-04-10T17:06:34.659Z,15.51
2024-04-10T17:07:34.665Z,15.54
2024-04-10T17:08:34.733Z,15.50
2024-04-10T17:09:34.632Z,15.53
2024-04-10T17:10:39.701Z,15.49
2024-04-10T17:11:34.690Z,15.43
2024-04-10T17:12:34.640Z,15.38
2024-04-10T17:13:34.573Z,15.32
2024-04-10T17:14:34.699Z,15.43
2024-04-10T17:15:34.555Z,15.43
2024-04-10T17:16:34.638Z,15.38
2024-04-10T17:17:34.628Z,15.39
2024-04-10T17:18:34.643Z,15.34
2024-04-10T17:19:34.518Z,15.29
2024-04-10T17:20:34.559Z,15.34
2024-04-10T17:21:39.516Z,15.34
2024-04-10T17:22:34.473Z,15.32
2024-04-10T17:23:34.476Z,15.36
2024-04-10T17:24:34.457Z,15.34
2024-04-10T17:25:34.429Z,15.28
2024-04-10T17:26:34.570Z,15.31
2024-04-10T17:27:34.421Z,15.28
2024-04-10T17:28:34.427Z,15.21
2024-04-10T17:29:34.415Z,15.32
2024-04-10T17:30:34.387Z,15.16
2024-04-10T17:31:34.376Z,15.27
2024-04-10T17:32:39.522Z,15.27
2024-04-10T17:33:34.626Z,15.19
2024-04-10T17:34:34.458Z,15.16
2024-04-10T17:35:34.423Z,15.17
2024-04-10T17:36:34.311Z,15.21
2024-04-10T17:37:34.316Z,15.13
2024-04-10T17:38:34.398Z,15.11
2024-04-10T17:39:34.274Z,15.10
2024-04-10T17:40:34.317Z,15.07
2024-04-10T17:41:34.320Z,15.14
2024-04-10T17:42:34.276Z,15.13
2024-04-10T17:43:39.286Z,15.09
2024-04-10T17:44:34.361Z,15.10
2024-04-10T17:45:34.223Z,15.10
2024-04-10T17:46:34.531Z,15.07
2024-04-10T17:47:34.318Z,15.01
2024-04-10T17:48:34.369Z,15.02
2024-04-10T17:49:34.182Z,15.02
2024-04-10T17:50:34.182Z,15.02
2024-04-10T17:51:34.137Z,15.03
2024-04-10T17:52:34.146Z,15.03
2024-04-10T17:53:34.108Z,15.02
2024-04-10T17:54:39.121Z,15.03
2024-04-10T17:55:34.092Z,14.92
2024-04-10T17:56:34.109Z,14.94